createdAt,value
2019-04-01T00:01:18.381Z,11.40
2019-04-01T00:03:45.793Z,10.80
2019-04-01T00:06:13.187Z,11.73
2019-04-01T00:08:40.589Z,11.33
2019-04-01T00:11:08.037Z,11.47
2019-04-01T00:13:35.525Z,12.70
2019-04-01T00:16:02.922Z,11.83
2019-04-01T00:18:30.395Z,11.03
2019-04-01T00:20:57.743Z,11.60
2019-04-01T00:23:25.061Z,11.33
2019-04-01T00:25:52.646Z,11.10
2019-04-01T00:28:20.159Z,11.20
2019-04-01T00:30:47.605Z,10.90
2019-04-01T00:33:15.106Z,10.70
2019-04-01T00:35:42.708Z,11.23
2019-04-01T00:38:10.213Z,10.57
2019-04-01T00:40:37.522Z,10.97
2019-04-01T00:43:13.144Z,10.80
2019-04-01T00:45:41.771Z,12.23
2019-04-01T00:48:09.223Z,11.20
2019-04-01T00:50:36.688Z,10.87
2019-04-01T00:53:04.209Z,11.47
2019-04-01T00:55:31.506Z,10.87
2019-04-01T00:57:58.874Z,11.13
2019-04-01T01:00:26.397Z,11.03
2019-04-01T01:02:53.819Z,11.27
2019-04-01T01:05:21.226Z,10.33
2019-04-01T01:07:48.650Z,10.57
2019-04-01T01:10:16.098Z,11.73
2019-04-01T01:12:43.436Z,11.00
2019-04-01T01:15:11.219Z,10.90
2019-04-01T01:17:38.734Z,9.63
2019-04-01T01:20:06.121Z,10.80
2019-04-01T01:22:33.606Z,11.13
2019-04-01T01:25:01.385Z,11.03
2019-04-01T01:27:28.722Z,11.20
2019-04-01T01:29:56.128Z,11.57
2019-04-01T01:32:23.681Z,11.10
2019-04-01T01:34:51.076Z,10.90
2019-04-01T01:37:18.458Z,10.73
2019-04-01T01:39:45.942Z,11.27
2019-04-01T01:42:13.638Z,11.03
2019-04-01T01:44:41.046Z,10.43
2019-04-01T01:47:08.455Z,10.80
2019-04-01T01:49:36.232Z,11.77
2019-04-01T01:52:03.778Z,12.17
2019-04-01T01:54:31.605Z,11.20
2019-04-01T01:56:59.128Z,11.07
2019-04-01T01:59:26.560Z,12.33
2019-04-01T02:01:55.558Z,11.67
2019-04-01T02:04:22.994Z,11.90
2019-04-01T02:06:50.437Z,12.53
2019-04-01T02:09:17.806Z,12.43
2019-04-01T02:11:45.588Z,11.83
2019-04-01T02:14:12.987Z,12.33
2019-04-01T02:16:40.336Z,11.50
2019-04-01T02:19:07.713Z,11.83
2019-04-01T02:21:35.087Z,12.23
2019-04-01T02:24:02.572Z,12.77
2019-04-01T02:26:30.059Z,12.43
2019-04-01T02:28:57.390Z,12.23
2019-04-01T02:31:24.819Z,12.93
2019-04-01T02:33:52.250Z,12.97
2019-04-01T02:36:19.758Z,11.13
2019-04-01T02:38:47.242Z,12.33
2019-04-01T02:41:14.599Z,13.40
2019-04-01T02:43:42.310Z,13.50
2019-04-01T02:46:09.795Z,12.97
2019-04-01T02:48:37.346Z,13.23
2019-04-01T02:51:04.789Z,12.77
2019-04-01T02:53:32.138Z,13.77
2019-04-01T02:55:59.577Z,14.27
2019-04-01T02:58:27.026Z,13.40
2019-04-01T03:00:54.449Z,13.77
2019-04-01T03:03:21.908Z,13.93
2019-04-01T03:05:49.299Z,14.13
2019-04-01T03:08:16.653Z,14.07
2019-04-01T03:10:43.984Z,14.43
2019-04-01T03:13:11.463Z,14.43
2019-04-01T03:15:38.874Z,13.90
2019-04-01T03:18:06.425Z,15.13
2019-04-01T03:20:34.018Z,14.47
2019-04-01T03:23:01.436Z,14.27
2019-04-01T03:25:28.899Z,15.73
2019-04-01T03:27:56.361Z,15.87
2019-04-01T03:30:23.901Z,16.23
2019-04-01T03:32:51.363Z,15.47
2019-04-01T03:35:18.795Z,15.43
2019-04-01T03:37:46.255Z,16.50
2019-04-01T03:40:13.801Z,15.90
2019-04-01T03:42:41.329Z,16.20
2019-04-01T03:45:08.757Z,16.97
2019-04-01T03:47:36.060Z,16.03
2019-04-01T03:50:03.673Z,16.40
2019-04-01T03:52:31.192Z,17.10
2019-04-01T03:54:58.687Z,17.70
2019-04-01T03:57:26.205Z,17.30
2019-04-01T03:59:53.567Z,17.13
2019-04-01T04:02:21.192Z,18.50
2019-04-01T04:04:48.617Z,17.97
2019-04-01T04:07:16.090Z,17.67
2019-04-01T04:09:43.640Z,18.93
2019-04-01T04:12:11.501Z,18.27
2019-04-01T04:14:38.906Z,18.27
2019-04-01T04:17:06.311Z,17.97
2019-04-01T04:19:33.758Z,18.57
2019-04-01T04:22:01.209Z,18.93
2019-04-01T04:24:28.524Z,18.33
2019-04-01T04:26:55.922Z,18.27
2019-04-01T04:29:23.382Z,18.73
2019-04-01T04:31:50.881Z,20.10
2019-04-01T04:34:18.346Z,19.87
2019-04-01T04:36:45.781Z,18.47
2019-04-01T04:39:14.672Z,18.60
2019-04-01T04:41:42.921Z,18.47
2019-04-01T04:44:10.320Z,19.53
2019-04-01T04:46:37.751Z,19.53
2019-04-01T04:49:05.232Z,18.77
2019-04-01T04:51:32.670Z,19.73
2019-04-01T04:54:00.206Z,19.70
2019-04-01T04:56:27.543Z,20.50
2019-04-01T04:58:54.978Z,20.93
2019-04-01T05:01:22.508Z,19.17
2019-04-01T05:03:50.191Z,20.17
2019-04-01T05:06:17.598Z,19.70
2019-04-01T05:08:45.054Z,19.83
2019-04-01T05:11:12.512Z,20.03
2019-04-01T05:13:39.863Z,20.20
2019-04-01T05:16:07.299Z,18.70
2019-04-01T05:18:34.717Z,19.70
2019-04-01T05:21:02.103Z,19.27
2019-04-01T05:23:30.289Z,19.57
2019-04-01T05:25:58.302Z,18.13
2019-04-01T05:28:27.841Z,18.20
2019-04-01T05:30:56.936Z,19.50
2019-04-01T05:33:28.093Z,17.63
2019-04-01T05:35:56.149Z,18.97
2019-04-01T05:38:23.568Z,18.63
2019-04-01T05:40:50.897Z,19.00
2019-04-01T05:43:18.552Z,19.13
2019-04-01T05:45:46.819Z,19.43
2019-04-01T05:48:16.022Z,19.60
2019-04-01T05:50:43.542Z,18.60
2019-04-01T05:53:10.939Z,18.87
2019-04-01T05:55:38.280Z,18.50
2019-04-01T05:58:05.711Z,18.07
2019-04-01T06:00:37.241Z,18.67
2019-04-01T06:03:04.757Z,18.50
2019-04-01T06:05:35.853Z,18.33
2019-04-01T06:08:03.863Z,17.47
2019-04-01T06:10:31.330Z,18.77
2019-04-01T06:12:59.112Z,17.47
2019-04-01T06:15:46.086Z,18.43
2019-04-01T06:18:14.571Z,18.27
2019-04-01T06:20:42.044Z,19.27
2019-04-01T06:23:09.625Z,19.83
2019-04-01T06:25:37.157Z,18.53
2019-04-01T06:28:04.712Z,20.13
2019-04-01T06:30:32.143Z,19.77
2019-04-01T06:32:59.452Z,19.73
2019-04-01T06:35:26.907Z,19.23
2019-04-01T06:37:54.389Z,20.20
2019-04-01T06:40:21.766Z,19.83
2019-04-01T06:42:49.250Z,21.17
2019-04-01T06:45:16.698Z,20.83
2019-04-01T06:47:44.144Z,20.03
2019-04-01T06:50:11.846Z,20.63
2019-04-01T06:52:39.292Z,21.30
2019-04-01T06:55:06.853Z,21.83
2019-04-01T06:57:34.458Z,20.10
2019-04-01T07:00:01.838Z,20.57
2019-04-01T07:02:29.361Z,19.73
2019-04-01T07:04:56.788Z,20.90
2019-04-01T07:07:24.376Z,19.07
2019-04-01T07:10:24.704Z,19.77
2019-04-01T07:12:50.885Z,20.13
2019-04-01T07:15:18.216Z,19.47
2019-04-01T07:17:45.626Z,21.60
2019-04-01T07:20:13.052Z,20.93
2019-04-01T07:22:40.510Z,20.80
2019-04-01T07:25:08.240Z,22.70
2019-04-01T07:27:35.588Z,21.47
2019-04-01T07:30:03.592Z,19.77
2019-04-01T07:32:34.356Z,21.47
2019-04-01T07:35:02.377Z,21.17
2019-04-01T07:37:29.962Z,22.50
2019-04-01T07:39:57.381Z,21.70
2019-04-01T07:42:24.836Z,21.67
2019-04-01T07:44:52.222Z,23.97
2019-04-01T07:47:19.715Z,21.13
2019-04-01T07:49:50.734Z,20.87
2019-04-01T07:52:18.210Z,21.43
2019-04-01T07:54:45.563Z,21.13
2019-04-01T07:57:12.974Z,20.27
2019-04-01T07:59:40.347Z,21.13
2019-04-01T08:02:10.809Z,23.37
2019-04-01T08:04:38.242Z,17.60
2019-04-01T08:07:08.769Z,21.07
2019-04-01T08:09:37.799Z,20.77
2019-04-01T08:12:05.365Z,19.67
2019-04-01T08:14:32.889Z,22.23
2019-04-01T08:17:00.628Z,21.77
2019-04-01T08:19:28.450Z,20.60
2019-04-01T08:21:55.860Z,17.90
2019-04-01T08:24:23.363Z,19.40
2019-04-01T08:26:50.871Z,19.33
2019-04-01T08:29:29.401Z,20.57
2019-04-01T08:31:47.495Z,20.87
2019-04-01T08:34:14.991Z,19.67
2019-04-01T08:36:42.308Z,19.17
2019-04-01T08:39:13.400Z,19.87
2019-04-01T08:41:40.840Z,18.87
2019-04-01T08:44:09.265Z,20.53
2019-04-01T08:46:36.875Z,22.07
2019-04-01T08:49:07.677Z,16.37
2019-04-01T08:51:35.547Z,21.07
2019-04-01T08:54:03.253Z,18.53
2019-04-01T08:56:30.859Z,19.00
2019-04-01T08:58:58.362Z,17.67
2019-04-01T09:01:35.162Z,18.27
2019-04-01T09:03:55.149Z,16.87
2019-04-01T09:06:22.478Z,18.87
2019-04-01T09:08:51.944Z,18.87
2019-04-01T09:11:20.218Z,18.43
2019-04-01T09:13:47.899Z,18.60
2019-04-01T09:16:15.773Z,18.53
2019-04-01T09:18:43.358Z,19.03
2019-04-01T09:21:10.718Z,18.13
2019-04-01T09:23:38.014Z,18.50
2019-04-01T09:26:05.432Z,18.47
2019-04-01T09:28:32.929Z,16.57
2019-04-01T09:31:00.425Z,18.80
2019-04-01T09:33:28.019Z,15.97
2019-04-01T09:35:55.516Z,18.80
2019-04-01T09:38:22.875Z,19.03
2019-04-01T09:40:50.394Z,17.50
2019-04-01T09:43:17.909Z,17.93
2019-04-01T09:45:45.300Z,16.77
2019-04-01T09:48:12.831Z,17.17
2019-04-01T09:50:40.361Z,15.73
2019-04-01T09:53:08.184Z,15.10
2019-04-01T09:59:00.146Z,16.10
2019-04-01T10:01:27.806Z,16.27
2019-04-01T10:03:55.327Z,16.03
2019-04-01T10:06:22.884Z,16.27
2019-04-01T10:08:50.409Z,16.83
2019-04-01T10:11:17.889Z,16.00
2019-04-01T10:13:48.110Z,15.35
2019-04-01T10:16:15.661Z,15.25
2019-04-01T10:18:43.110Z,15.33
2019-04-01T10:21:10.580Z,15.30
2019-04-01T10:23:37.999Z,15.60
2019-04-01T10:26:05.324Z,15.50
2019-04-01T10:28:32.786Z,16.87
2019-04-01T10:31:00.370Z,16.20
2019-04-01T10:33:28.987Z,16.77
2019-04-01T10:35:56.360Z,15.67
2019-04-01T10:38:47.492Z,16.27
2019-04-01T10:41:15.131Z,18.13
2019-04-01T10:43:42.522Z,15.97
2019-04-01T10:46:12.221Z,16.03
2019-04-01T10:48:39.103Z,17.67
2019-04-01T10:51:06.414Z,15.63
2019-04-01T10:53:33.886Z,15.33
2019-04-01T10:56:01.290Z,16.57
2019-04-01T10:58:29.182Z,15.33
2019-04-01T11:00:56.694Z,15.40
2019-04-01T11:03:24.241Z,16.70
2019-04-01T11:05:51.725Z,16.40
2019-04-01T11:08:19.147Z,17.30
2019-04-01T11:10:46.487Z,16.50
2019-04-01T11:13:13.825Z,15.77
2019-04-01T11:15:41.202Z,16.23
2019-04-01T11:18:08.685Z,16.40
2019-04-01T11:20:36.851Z,14.93
2019-04-01T11:23:05.093Z,16.03
2019-04-01T11:25:33.081Z,15.23
2019-04-01T11:28:00.615Z,15.33
2019-04-01T11:30:28.013Z,14.97
2019-04-01T11:32:55.442Z,15.50
2019-04-01T11:35:22.971Z,15.93
2019-04-01T11:38:12.039Z,17.07
2019-04-01T11:40:39.463Z,15.83
2019-04-01T11:43:06.921Z,15.63
2019-04-01T11:45:34.358Z,15.20
2019-04-01T11:48:01.782Z,15.70
2019-04-01T11:50:29.230Z,15.67
2019-04-01T11:52:56.689Z,16.00
2019-04-01T11:55:24.446Z,16.13
2019-04-01T11:57:51.767Z,14.87
2019-04-01T12:00:19.084Z,14.90
2019-04-01T12:02:46.623Z,16.23
2019-04-01T12:05:14.073Z,15.37
2019-04-01T12:07:41.477Z,17.10
2019-04-01T12:10:09.227Z,16.23
2019-04-01T12:12:36.680Z,16.53
2019-04-01T12:15:04.303Z,14.63
2019-04-01T12:20:05.118Z,13.87
2019-04-01T12:22:32.477Z,15.83
2019-04-01T12:24:59.900Z,15.37
2019-04-01T12:27:28.134Z,15.23
2019-04-01T12:29:55.669Z,15.43
2019-04-01T12:32:23.082Z,15.33
2019-04-01T12:34:50.429Z,15.63
2019-04-01T12:37:18.064Z,14.40
2019-04-01T12:39:45.437Z,14.13
2019-04-01T12:42:12.924Z,14.30
2019-04-01T12:44:41.380Z,14.70
2019-04-01T12:47:08.878Z,14.80
2019-04-01T12:49:36.205Z,14.60
2019-04-01T12:52:03.516Z,14.67
2019-04-01T12:54:30.909Z,15.37
2019-04-01T12:56:58.220Z,15.53
2019-04-01T12:59:25.638Z,13.37
2019-04-01T13:01:53.062Z,12.83
2019-04-01T13:04:20.396Z,14.20
2019-04-01T13:06:47.838Z,14.40
2019-04-01T13:09:15.963Z,14.13
2019-04-01T13:11:43.441Z,14.10
2019-04-01T13:14:10.793Z,14.00
2019-04-01T13:16:38.118Z,13.33
2019-04-01T13:19:05.635Z,12.03
2019-04-01T13:21:34.730Z,13.13
2019-04-01T13:24:02.280Z,12.63
2019-04-01T13:26:30.953Z,12.20
2019-04-01T13:28:58.389Z,12.80
2019-04-01T13:31:25.914Z,12.40
2019-04-01T13:33:53.365Z,13.93
2019-04-01T13:36:21.230Z,13.63
2019-04-01T13:38:49.056Z,14.37
2019-04-01T13:41:24.984Z,14.20
2019-04-01T13:43:51.304Z,11.87
2019-04-01T13:46:19.217Z,13.87
2019-04-01T13:48:57.493Z,13.90
2019-04-01T13:51:16.211Z,13.50
2019-04-01T13:53:43.585Z,12.57
2019-04-01T13:56:12.621Z,13.60
2019-04-01T13:58:40.336Z,15.37
2019-04-01T14:01:07.665Z,13.87
2019-04-01T14:03:35.112Z,14.30
2019-04-01T14:06:02.479Z,12.10
2019-04-01T14:08:29.924Z,11.03
2019-04-01T14:10:57.147Z,12.93
2019-04-01T14:13:24.639Z,12.73
2019-04-01T14:15:51.988Z,13.10
2019-04-01T14:18:19.476Z,12.23
2019-04-01T14:20:46.935Z,14.20
2019-04-01T14:23:15.640Z,13.00
2019-04-01T14:25:43.225Z,12.20
2019-04-01T14:28:11.023Z,12.07
2019-04-01T14:30:38.378Z,12.03
2019-04-01T14:33:05.802Z,13.07
2019-04-01T14:35:33.168Z,12.47
2019-04-01T14:38:00.608Z,12.03
2019-04-01T14:40:28.084Z,12.57
2019-04-01T14:42:55.617Z,12.83
2019-04-01T14:45:23.061Z,13.43
2019-04-01T14:47:57.526Z,13.00
2019-04-01T14:50:19.763Z,12.83
2019-04-01T14:52:48.081Z,12.43
2019-04-01T14:55:15.415Z,12.83
2019-04-01T14:57:43.202Z,11.97
2019-04-01T15:00:13.627Z,10.60
2019-04-01T15:03:01.199Z,12.00
2019-04-01T15:05:28.548Z,11.30
2019-04-01T15:07:56.035Z,12.17
2019-04-01T15:10:23.887Z,12.37
2019-04-01T15:13:04.303Z,12.47
2019-04-01T15:15:20.874Z,12.57
2019-04-01T15:17:48.392Z,12.40
2019-04-01T15:20:18.992Z,12.17
2019-04-01T15:22:46.394Z,11.40
2019-04-01T15:25:15.692Z,12.73
2019-04-01T15:27:43.197Z,11.30
2019-04-01T15:30:13.824Z,11.37
2019-04-01T15:32:39.982Z,10.83
2019-04-01T15:35:09.194Z,10.47
2019-04-01T15:37:39.039Z,10.70
2019-04-01T15:40:07.218Z,10.73
2019-04-01T15:42:35.457Z,11.47
2019-04-01T15:45:03.726Z,11.47
2019-04-01T15:47:31.566Z,11.23
2019-04-01T15:50:00.380Z,11.00
2019-04-01T15:52:27.903Z,11.03
2019-04-01T15:54:58.043Z,10.63
2019-04-01T15:57:26.328Z,11.27
2019-04-01T15:59:54.948Z,11.10
2019-04-01T16:02:22.526Z,10.87
2019-04-01T16:04:50.297Z,11.33
2019-04-01T16:07:17.792Z,11.03
2019-04-01T16:09:45.201Z,11.17
2019-04-01T16:12:12.677Z,11.07
2019-04-01T16:14:40.271Z,11.30
2019-04-01T16:17:08.509Z,12.27
2019-04-01T16:19:37.122Z,10.20
2019-04-01T16:22:04.558Z,11.00
2019-04-01T16:24:51.404Z,9.57
2019-04-01T16:27:18.789Z,10.87
2019-04-01T16:29:46.327Z,11.50
2019-04-01T16:32:14.124Z,12.87
2019-04-01T16:34:42.277Z,11.17
2019-04-01T16:37:09.875Z,12.07
2019-04-01T16:39:37.265Z,11.50
2019-04-01T16:42:05.369Z,11.80
2019-04-01T16:44:34.531Z,11.80
2019-04-01T16:47:01.966Z,10.47
2019-04-01T16:49:29.745Z,10.77
2019-04-01T16:51:57.273Z,10.33
2019-04-01T16:54:24.643Z,11.50
2019-04-01T16:56:52.107Z,12.27
2019-04-01T16:59:19.499Z,11.00
2019-04-01T17:01:46.919Z,11.20
2019-04-01T17:04:14.354Z,10.87
2019-04-01T17:06:43.138Z,11.50
2019-04-01T17:09:11.382Z,10.53
2019-04-01T17:11:39.194Z,11.47
2019-04-01T17:14:09.154Z,11.63
2019-04-01T17:16:36.053Z,11.23
2019-04-01T17:19:03.410Z,11.80
2019-04-01T17:21:30.913Z,11.50
2019-04-01T17:23:59.294Z,10.27
2019-04-01T17:26:27.190Z,10.83
2019-04-01T17:28:57.311Z,10.63
2019-04-01T17:31:24.947Z,10.20
2019-04-01T17:33:52.452Z,10.43
2019-04-01T17:36:20.331Z,10.30
2019-04-01T17:38:48.372Z,10.63
2019-04-01T17:41:17.214Z,11.17
2019-04-01T17:43:45.410Z,11.27
2019-04-01T17:46:13.269Z,10.70
2019-04-01T17:48:40.865Z,10.60
2019-04-01T17:51:08.109Z,10.87
2019-04-01T17:53:35.556Z,10.80
2019-04-01T17:56:05.296Z,11.33
2019-04-01T17:58:32.722Z,10.83
2019-04-01T18:01:00.336Z,11.00
2019-04-01T18:03:27.967Z,10.90
2019-04-01T18:05:55.364Z,10.50
2019-04-01T18:08:22.977Z,23.30
2019-04-01T18:10:50.522Z,16.47
2019-04-01T18:13:17.992Z,27.10
2019-04-01T18:15:45.673Z,13.40
2019-04-01T18:18:26.098Z,13.07
2019-04-01T18:20:44.995Z,14.83
2019-04-01T18:23:12.523Z,13.20
2019-04-01T18:25:40.061Z,12.03
2019-04-01T18:28:07.633Z,11.23
2019-04-01T18:30:35.247Z,11.90
2019-04-01T18:33:03.098Z,11.67
2019-04-01T18:35:30.544Z,11.10
2019-04-01T18:37:57.915Z,11.57
2019-04-01T18:40:32.607Z,11.60
2019-04-01T18:42:54.886Z,11.20
2019-04-01T18:45:22.713Z,12.37
2019-04-01T18:47:50.702Z,12.10
2019-04-01T18:50:18.096Z,12.03
2019-04-01T18:52:45.498Z,12.73
2019-04-01T18:55:13.179Z,11.30
2019-04-01T18:57:40.658Z,11.63
2019-04-01T19:00:09.178Z,12.37
2019-04-01T19:02:36.628Z,12.83
2019-04-01T19:05:04.319Z,12.70
2019-04-01T19:07:32.231Z,12.60
2019-04-01T19:10:05.932Z,12.93
2019-04-01T19:12:29.239Z,12.83
2019-04-01T19:14:56.684Z,13.03
2019-04-01T19:17:24.254Z,13.27
2019-04-01T19:19:51.791Z,13.07
2019-04-01T19:22:19.223Z,12.03
2019-04-01T19:24:46.692Z,13.23
2019-04-01T19:27:14.170Z,13.03
2019-04-01T19:29:43.014Z,13.60
2019-04-01T19:32:10.882Z,12.23
2019-04-01T19:34:38.312Z,12.50
2019-04-01T19:37:05.798Z,13.00
2019-04-01T19:39:33.299Z,12.00
2019-04-01T19:42:00.784Z,11.77
2019-04-01T19:44:28.276Z,12.87
2019-04-01T19:46:55.686Z,12.73
2019-04-01T19:49:23.028Z,12.20
2019-04-01T19:51:50.514Z,12.57
2019-04-01T19:54:26.835Z,13.03
2019-04-01T19:56:47.576Z,11.73
2019-04-01T20:01:06.303Z,12.80
2019-04-01T20:03:33.925Z,10.57
2019-04-01T20:06:01.581Z,11.80
2019-04-01T20:08:29.140Z,11.97
2019-04-01T20:10:56.636Z,11.50
2019-04-01T20:13:24.136Z,11.80
2019-04-01T20:15:51.662Z,10.93
2019-04-01T20:18:19.167Z,11.60
2019-04-01T20:20:47.020Z,11.63
2019-04-01T20:23:14.659Z,11.87
2019-04-01T20:25:42.861Z,11.13
2019-04-01T20:28:10.475Z,11.50
2019-04-01T20:30:38.463Z,10.80
2019-04-01T20:33:17.079Z,11.17
2019-04-01T20:35:35.593Z,11.20
2019-04-01T20:38:03.037Z,10.77
2019-04-01T20:40:30.524Z,11.00
2019-04-01T20:42:58.146Z,11.93
2019-04-01T20:45:25.876Z,11.13
2019-04-01T20:47:53.495Z,11.67
2019-04-01T20:50:21.059Z,11.37
2019-04-01T20:52:50.176Z,11.73
2019-04-01T20:55:18.207Z,12.00
2019-04-01T20:57:46.175Z,10.67
2019-04-01T21:00:14.259Z,11.50
2019-04-01T21:02:42.418Z,10.00
2019-04-01T21:05:10.198Z,11.23
2019-04-01T21:07:40.504Z,10.87
2019-04-01T21:10:08.571Z,11.27
2019-04-01T21:12:36.139Z,10.97
2019-04-01T21:15:05.018Z,11.17
2019-04-01T21:17:32.480Z,11.80
2019-04-01T21:19:59.929Z,12.20
2019-04-01T21:22:27.355Z,11.83
2019-04-01T21:24:54.752Z,11.90
2019-04-01T21:27:22.199Z,12.40
2019-04-01T21:29:51.464Z,12.17
2019-04-01T21:32:18.925Z,12.37
2019-04-01T21:34:46.546Z,12.47
2019-04-01T21:37:14.066Z,12.13
2019-04-01T21:39:41.516Z,11.57
2019-04-01T21:42:08.827Z,12.37
2019-04-01T21:44:36.259Z,11.90
2019-04-01T21:47:03.739Z,11.17
2019-04-01T21:49:31.175Z,12.43
2019-04-01T21:51:58.678Z,11.47
2019-04-01T21:54:26.107Z,11.50
2019-04-01T21:56:53.442Z,11.93
2019-04-01T21:59:20.945Z,12.20
2019-04-01T22:01:48.376Z,11.77
2019-04-01T22:04:15.799Z,11.63
2019-04-01T22:06:43.239Z,12.23
2019-04-01T22:09:10.714Z,12.40
2019-04-01T22:11:38.151Z,12.23
2019-04-01T22:14:05.505Z,12.40
2019-04-01T22:16:32.930Z,12.33
2019-04-01T22:19:00.312Z,12.83
2019-04-01T22:21:27.776Z,12.60
2019-04-01T22:23:55.197Z,11.93
2019-04-01T22:26:22.797Z,12.60
2019-04-01T22:28:51.024Z,12.17
2019-04-01T22:31:18.557Z,12.93
2019-04-01T22:33:45.947Z,11.53
2019-04-01T22:36:13.547Z,12.00
2019-04-01T22:38:40.934Z,12.43
2019-04-01T22:41:08.392Z,12.20
2019-04-01T22:43:35.673Z,12.13
2019-04-01T22:46:03.051Z,13.03
2019-04-01T22:48:30.487Z,12.67
2019-04-01T22:50:57.913Z,13.07
2019-04-01T22:53:25.265Z,12.57
2019-04-01T22:55:53.089Z,12.97
2019-04-01T22:58:21.955Z,12.60
2019-04-01T23:00:49.760Z,12.43
2019-04-01T23:03:17.322Z,13.17
2019-04-01T23:05:44.923Z,13.17
2019-04-01T23:08:12.405Z,13.13
2019-04-01T23:11:03.336Z,13.33
2019-04-01T23:13:30.770Z,13.37
2019-04-01T23:15:58.136Z,12.80
2019-04-01T23:18:25.485Z,13.20
2019-04-01T23:20:52.831Z,13.17
2019-04-01T23:23:20.153Z,12.17
2019-04-01T23:25:47.441Z,13.23
2019-04-01T23:28:14.788Z,12.97
2019-04-01T23:30:42.107Z,12.93
2019-04-01T23:33:09.476Z,13.60
2019-04-01T23:35:36.770Z,14.10
2019-04-01T23:38:04.101Z,13.83
2019-04-01T23:40:32.439Z,12.77
2019-04-01T23:43:00.461Z,13.33
2019-04-01T23:45:27.940Z,13.33
2019-04-01T23:47:55.327Z,12.87
2019-04-01T23:50:22.786Z,13.13
2019-04-01T23:52:50.175Z,12.77
2019-04-01T23:55:17.711Z,13.30
2019-04-01T23:57:45.142Z,13.20
